Time;durP1;ratioP1;P1;durP2;ratioP2;P2;SDS_P1;SDS_P2;PMS_P1;PMS_P2;Temp;Humidity;BMP_temperature;BMP_pressure;BME280_temperature;BME280_humidity;BME280_pressure;Samples;Min_cycle;Max_cycle;Signal;HPM_P1;HPM_P2
2021/01/11 00:49:15;;;;;;;2.30;0.70;;;27.90;64.80;;;;;;3430538;28;20577;-77
2021/01/11 00:54:53;;;;;;;2.67;0.73;;;28.10;64.20;;;;;;5180185;23;22779;-74
2021/01/11 00:57:23;;;;;;;5.93;1.27;;;28.10;64.50;;;;;;4968307;28;20197;-74
2021/01/11 00:59:51;;;;;;;1.77;0.60;;;28.00;65.00;;;;;;4965056;28;20186;-73
2021/01/11 01:02:18;;;;;;;1.33;0.63;;;28.20;65.00;;;;;;4965478;28;20179;-71
2021/01/11 01:04:46;;;;;;;4.93;0.70;;;28.10;64.70;;;;;;4968104;28;20548;-69
2021/01/11 01:07:13;;;;;;;3.13;0.63;;;28.20;64.90;;;;;;4976317;28;20175;-67
2021/01/11 01:09:40;;;;;;;2.83;0.80;;;28.20;65.10;;;;;;4965527;28;20330;-68
2021/01/11 01:12:08;;;;;;;2.77;0.77;;;28.30;64.70;;;;;;4969439;28;20273;-68
2021/01/11 01:14:35;;;;;;;1.43;0.67;;;28.40;64.70;;;;;;4966174;28;20625;-70
2021/01/11 01:17:03;;;;;;;3.00;0.83;;;28.40;64.00;;;;;;4969500;28;20194;-69
2021/01/11 01:19:30;;;;;;;3.47;0.60;;;28.50;64.40;;;;;;4973356;28;20246;-72
2021/01/11 01:21:57;;;;;;;3.43;0.80;;;28.50;64.20;;;;;;4973031;28;20178;-71
2021/01/11 01:24:25;;;;;;;5.40;0.93;;;28.60;64.30;;;;;;4974494;28;20187;-71
2021/01/11 01:26:52;;;;;;;3.90;1.10;;;28.70;64.20;;;;;;4962627;28;20190;-69
2021/01/11 01:29:19;;;;;;;4.77;0.77;;;28.50;64.00;;;;;;4976129;28;20171;-70
2021/01/11 01:31:47;;;;;;;6.17;0.80;;;28.60;64.10;;;;;;4974715;28;20182;-70
2021/01/11 01:34:14;;;;;;;2.83;0.90;;;28.30;64.60;;;;;;4963334;28;20208;-69
2021/01/11 01:36:41;;;;;;;1.60;0.50;;;28.60;64.70;;;;;;4976266;28;20201;-70
2021/01/11 01:39:08;;;;;;;3.03;1.27;;;28.50;63.20;;;;;;4971467;28;20314;-68
2021/01/11 01:41:36;;;;;;;4.93;0.87;;;28.40;63.80;;;;;;4971177;28;20225;-70
2021/01/11 01:44:03;;;;;;;8.53;0.90;;;28.30;64.80;;;;;;4976236;28;20179;-68
2021/01/11 01:46:32;;;;;;;2.90;1.00;;;28.40;64.20;;;;;;4973974;28;20541;-69
2021/01/11 01:49:01;;;;;;;4.80;1.00;;;28.30;65.10;;;;;;4966329;28;20190;-69
2021/01/11 01:51:28;;;;;;;8.03;1.30;;;28.50;63.90;;;;;;4967351;28;20225;-67
2021/01/11 01:53:56;;;;;;;4.67;0.90;;;28.50;64.50;;;;;;4968419;28;20194;-68
2021/01/11 01:56:25;;;;;;;3.90;0.80;;;28.70;63.60;;;;;;4985259;28;20300;-67
2021/01/11 01:58:53;;;;;;;2.30;1.00;;;28.60;63.80;;;;;;4991882;28;20538;-68
2021/01/11 02:01:20;;;;;;;4.50;0.90;;;28.70;64.10;;;;;;4995256;28;20186;-68
2021/01/11 02:03:48;;;;;;;1.33;0.73;;;28.80;63.20;;;;;;4992281;28;20189;-69
2021/01/11 02:06:16;;;;;;;3.27;1.10;;;28.80;63.70;;;;;;4989943;28;20210;-69
2021/01/11 02:09:02;;;;;;;3.80;0.70;;;28.90;63.70;;;;;;4993380;28;20181;-71
2021/01/11 02:11:55;;;;;;;3.47;0.83;;;29.30;63.00;;;;;;4992534;28;20193;-71
2021/01/11 02:14:58;;;;;;;4.03;0.70;;;29.20;62.30;;;;;;4995171;28;20209;-75
2021/01/11 02:17:43;;;;;;;4.03;0.80;;;29.30;62.60;;;;;;4994012;28;20660;-71
2021/01/11 02:20:47;;;;;;;3.17;0.90;;;29.10;62.20;;;;;;4995246;28;20178;-73
2021/01/11 02:23:53;;;;;;;6.73;1.00;;;29.10;63.00;;;;;;4990916;28;20183;-73
2021/01/11 02:26:39;;;;;;;1.90;0.77;;;29.00;62.60;;;;;;4981590;28;20197;-74
2021/01/11 02:29:43;;;;;;;5.83;0.90;;;29.40;62.50;;;;;;4986910;28;20642;-74
2021/01/11 02:32:12;;;;;;;4.67;1.00;;;29.40;61.80;;;;;;4988281;28;20587;-75
2021/01/11 02:34:41;;;;;;;4.73;0.90;;;29.50;61.20;;;;;;4988503;28;20232;-77
2021/01/11 02:37:09;;;;;;;6.00;1.20;;;29.60;60.70;;;;;;4980518;28;20194;-73
2021/01/11 02:39:36;;;;;;;3.37;0.80;;;29.60;60.70;;;;;;4985703;28;20182;-71
2021/01/11 02:42:03;;;;;;;3.03;1.00;;;29.80;60.70;;;;;;4981775;28;20183;-71
2021/01/11 02:44:31;;;;;;;2.57;0.80;;;29.50;59.60;;;;;;4986169;28;20667;-71
2021/01/11 02:46:58;;;;;;;4.23;0.70;;;29.40;58.60;;;;;;4981177;28;20179;-70
2021/01/11 02:49:28;;;;;;;4.63;0.90;;;29.30;58.50;;;;;;4987467;28;20552;-74
2021/01/11 02:52:15;;;;;;;2.17;0.60;;;29.20;58.40;;;;;;4989935;28;20190;-71
2021/01/11 02:54:51;;;;;;;2.83;0.77;;;29.40;56.80;;;;;;4984172;28;20680;-70
2021/01/11 02:57:47;;;;;;;2.93;0.83;;;29.20;57.20;;;;;;4983645;28;20575;-71
2021/01/11 03:00:17;;;;;;;3.77;0.97;;;29.60;57.10;;;;;;4920473;28;20621;-72
2021/01/11 03:02:47;;;;;;;2.50;0.63;;;29.60;57.10;;;;;;4986333;28;20660;-71
2021/01/11 03:05:16;;;;;;;2.80;0.50;;;29.40;56.30;;;;;;4983595;28;20201;-71
2021/01/11 03:08:03;;;;;;;2.67;0.90;;;29.40;56.40;;;;;;4989183;28;20198;-75
2021/01/11 03:10:30;;;;;;;2.37;0.63;;;29.50;56.80;;;;;;4992558;28;20585;-73
2021/01/11 03:12:58;;;;;;;3.93;0.83;;;29.70;56.60;;;;;;4989269;28;20273;-71
2021/01/11 03:15:25;;;;;;;2.07;0.70;;;29.50;56.20;;;;;;4987115;28;20229;-71
2021/01/11 03:17:52;;;;;;;3.20;0.80;;;29.50;56.30;;;;;;4987054;28;20195;-73
2021/01/11 03:20:20;;;;;;;6.27;0.97;;;29.50;54.70;;;;;;4991522;28;20213;-73
2021/01/11 03:22:47;;;;;;;2.43;0.80;;;29.70;55.30;;;;;;4989811;28;20766;-70
2021/01/11 03:25:14;;;;;;;2.33;0.80;;;29.40;55.90;;;;;;4985320;28;20202;-73
2021/01/11 03:27:42;;;;;;;3.53;0.83;;;29.50;56.20;;;;;;4985937;28;20265;-72
2021/01/11 03:30:09;;;;;;;2.23;0.80;;;29.60;55.30;;;;;;4988772;28;20205;-70
2021/01/11 03:32:37;;;;;;;2.40;0.67;;;29.60;56.60;;;;;;4983937;28;20182;-71
2021/01/11 03:35:05;;;;;;;1.70;0.53;;;29.70;56.20;;;;;;4984446;28;20228;-71
2021/01/11 03:37:33;;;;;;;3.47;0.70;;;29.50;57.20;;;;;;4986804;28;20186;-70
2021/01/11 03:40:00;;;;;;;4.17;0.83;;;29.80;57.30;;;;;;4984102;28;20185;-72
2021/01/11 03:42:27;;;;;;;3.90;0.90;;;30.10;56.20;;;;;;4991099;28;20298;-71
2021/01/11 03:44:55;;;;;;;2.40;0.63;;;30.10;56.40;;;;;;4989090;28;20194;-71
2021/01/11 03:47:22;;;;;;;3.67;0.98;;;30.10;56.60;;;;;;4987235;28;20193;-71
2021/01/11 03:49:50;;;;;;;2.80;0.80;;;30.10;56.10;;;;;;4991486;28;20655;-69
2021/01/11 03:52:17;;;;;;;3.20;0.80;;;29.90;56.50;;;;;;4990966;28;20187;-67
2021/01/11 03:54:44;;;;;;;3.30;0.85;;;29.80;57.10;;;;;;4990696;28;20746;-71
2021/01/11 03:57:11;;;;;;;3.30;0.87;;;29.90;55.30;;;;;;4991586;28;20277;-69
2021/01/11 03:59:39;;;;;;;3.40;0.73;;;29.70;54.30;;;;;;4991228;28;20696;-69
2021/01/11 04:02:06;;;;;;;4.88;0.98;;;29.60;56.60;;;;;;4991200;28;20213;-69
2021/01/11 04:04:33;;;;;;;2.85;0.60;;;29.60;57.50;;;;;;4984040;28;20597;-72
2021/01/11 04:07:01;;;;;;;1.97;0.60;;;29.70;56.70;;;;;;4985216;28;20272;-70
2021/01/11 04:09:28;;;;;;;5.68;0.95;;;29.70;56.90;;;;;;4985068;28;20189;-71
2021/01/11 04:11:55;;;;;;;3.40;0.85;;;29.80;57.40;;;;;;4983836;28;20709;-71
2021/01/11 04:14:23;;;;;;;2.92;0.47;;;30.10;58.10;;;;;;4983922;28;20308;-68
2021/01/11 04:16:53;;;;;;;3.17;0.97;;;29.80;57.60;;;;;;4983762;28;20556;-70
2021/01/11 04:19:21;;;;;;;4.30;0.80;;;29.70;58.80;;;;;;4984054;28;20204;-71
2021/01/11 04:21:48;;;;;;;0.60;0.53;;;30.00;57.90;;;;;;4974258;28;20186;-71
2021/01/11 04:24:16;;;;;;;1.48;0.63;;;30.30;56.70;;;;;;4988023;28;20201;-71
2021/01/11 04:26:46;;;;;;;3.83;0.87;;;30.00;57.30;;;;;;4988040;28;20217;-70
2021/01/11 04:29:14;;;;;;;1.50;0.70;;;30.10;57.30;;;;;;4991085;28;20244;-70
2021/01/11 04:31:41;;;;;;;4.40;0.90;;;30.40;56.10;;;;;;4982930;28;20186;-72
2021/01/11 04:34:08;;;;;;;4.15;2.30;;;30.60;56.80;;;;;;4994895;28;20308;-71
2021/01/11 04:36:36;;;;;;;4.32;0.90;;;30.70;55.80;;;;;;4986900;28;20185;-72
2021/01/11 04:39:03;;;;;;;4.03;0.88;;;30.70;56.50;;;;;;4982107;28;20197;-71
2021/01/11 04:41:40;;;;;;;3.58;0.93;;;30.80;55.70;;;;;;4982156;28;20316;-71
2021/01/11 04:44:13;;;;;;;2.08;0.90;;;31.20;56.30;;;;;;4976885;28;20194;-72
2021/01/11 04:46:40;;;;;;;4.72;0.77;;;30.90;56.00;;;;;;4983185;28;20189;-72
2021/01/11 04:49:08;;;;;;;4.90;1.00;;;31.00;56.50;;;;;;4980861;28;20189;-71
2021/01/11 04:51:40;;;;;;;2.92;0.82;;;30.50;56.00;;;;;;4992758;28;20208;-71
2021/01/11 04:54:08;;;;;;;2.83;1.10;;;30.60;56.60;;;;;;4992752;28;20216;-71
2021/01/11 04:56:46;;;;;;;4.20;0.88;;;31.10;55.50;;;;;;4992787;28;20226;-71
2021/01/11 04:59:19;;;;;;;1.67;0.93;;;30.80;55.20;;;;;;4992918;28;20552;-71
2021/01/11 05:01:50;;;;;;;7.30;0.70;;;30.40;56.00;;;;;;4992914;28;20185;-71
2021/01/11 05:04:17;;;;;;;3.75;0.75;;;30.40;56.20;;;;;;4993042;28;20183;-70
2021/01/11 05:06:49;;;;;;;3.65;0.95;;;30.60;55.60;;;;;;4992906;28;20658;-72
2021/01/11 05:09:18;;;;;;;4.63;2.97;;;30.60;56.50;;;;;;4992927;28;20265;-69
2021/01/11 05:11:45;;;;;;;6.15;5.40;;;30.70;55.80;;;;;;4991307;28;20193;-71
2021/01/11 05:14:19;;;;;;;1.77;0.57;;;31.00;55.90;;;;;;4992839;28;20205;-70
2021/01/11 05:17:05;;;;;;;7.53;1.10;;;31.10;54.70;;;;;;4992549;28;20182;-71
2021/01/11 05:19:33;;;;;;;1.85;0.55;;;30.50;55.90;;;;;;4992871;28;20228;-72
2021/01/11 05:22:01;;;;;;;4.47;0.60;;;30.50;55.70;;;;;;4995758;28;20257;-71
2021/01/11 05:24:46;;;;;;;5.88;2.17;;;30.80;55.00;;;;;;4994905;28;20174;-70
2021/01/11 05:27:13;;;;;;;2.28;1.50;;;30.60;56.20;;;;;;4995990;28;20181;-74
2021/01/11 05:29:41;;;;;;;3.67;0.90;;;30.50;56.60;;;;;;4996572;28;20166;-69
2021/01/11 05:32:09;;;;;;;2.20;0.60;;;30.80;55.00;;;;;;4997231;28;20174;-70
2021/01/11 05:34:51;;;;;;;4.03;0.70;;;30.80;55.70;;;;;;4997135;28;20206;-70
2021/01/11 05:37:32;;;;;;;2.58;0.80;;;31.50;55.10;;;;;;4997055;28;20193;-70
2021/01/11 05:40:14;;;;;;;3.95;0.80;;;31.50;53.90;;;;;;4995911;28;20272;-71
2021/01/11 05:42:42;;;;;;;3.40;0.93;;;31.40;53.50;;;;;;4996437;28;20536;-71
2021/01/11 05:45:15;;;;;;;1.80;0.70;;;31.10;54.80;;;;;;4997166;28;20512;-72
2021/01/11 05:48:10;;;;;;;1.70;0.73;;;31.10;55.40;;;;;;4996940;28;20269;-71
2021/01/11 05:50:40;;;;;;;2.10;0.60;;;31.30;55.80;;;;;;4996883;28;20525;-70
2021/01/11 05:53:27;;;;;;;1.85;0.57;;;31.50;53.90;;;;;;4995430;28;20537;-71
2021/01/11 05:55:56;;;;;;;5.68;0.70;;;31.10;54.80;;;;;;4996128;28;20229;-71
2021/01/11 05:58:27;;;;;;;3.75;0.68;;;31.10;56.00;;;;;;4996511;28;20174;-72
2021/01/11 06:00:55;;;;;;;4.07;0.60;;;31.10;55.50;;;;;;4994938;28;20215;-71
2021/01/11 06:03:22;;;;;;;5.68;0.77;;;31.40;54.50;;;;;;4996212;28;20178;-72
2021/01/11 06:05:50;;;;;;;2.88;0.80;;;31.40;54.30;;;;;;4996333;28;20189;-71
2021/01/11 06:08:17;;;;;;;3.40;0.63;;;31.40;55.40;;;;;;4995783;28;20182;-71
2021/01/11 06:10:44;;;;;;;2.08;0.90;;;31.20;56.00;;;;;;4994730;28;20170;-70
2021/01/11 06:13:13;;;;;;;7.10;0.95;;;30.80;56.10;;;;;;4995497;28;20186;-72
2021/01/11 06:15:42;;;;;;;4.45;1.50;;;31.10;56.40;;;;;;4993402;28;20308;-72
2021/01/11 06:18:11;;;;;;;5.97;1.40;;;31.10;56.80;;;;;;4993251;28;20224;-70
2021/01/11 06:20:44;;;;;;;2.63;0.93;;;31.00;56.60;;;;;;4994939;28;20198;-71
2021/01/11 06:23:13;;;;;;;4.93;1.00;;;30.90;56.70;;;;;;4995061;28;20167;-71
2021/01/11 06:25:43;;;;;;;7.63;1.15;;;31.00;56.90;;;;;;4976706;28;20218;-71
2021/01/11 06:28:12;;;;;;;6.00;1.15;;;31.00;57.10;;;;;;4987838;28;20513;-71
2021/01/11 06:30:40;;;;;;;4.32;1.00;;;30.70;57.20;;;;;;4991933;28;20209;-71
2021/01/11 06:33:16;;;;;;;6.15;1.13;;;30.60;57.30;;;;;;4989114;28;20205;-71
2021/01/11 06:35:48;;;;;;;3.40;0.68;;;30.70;56.70;;;;;;4994938;28;20285;-73
2021/01/11 06:38:21;;;;;;;4.43;0.88;;;30.50;57.90;;;;;;4994536;28;20213;-71
2021/01/11 06:40:53;;;;;;;3.38;1.05;;;30.60;58.10;;;;;;4994623;28;20213;-71
2021/01/11 06:43:22;;;;;;;1.90;0.52;;;30.70;57.70;;;;;;4993123;28;20240;-71
2021/01/11 06:45:51;;;;;;;3.95;0.80;;;31.00;57.00;;;;;;4994717;28;20186;-70
2021/01/11 06:48:23;;;;;;;2.78;1.00;;;31.50;57.10;;;;;;4990230;28;20748;-72
2021/01/11 06:50:52;;;;;;;5.97;1.05;;;31.10;57.00;;;;;;4990243;28;20552;-72
2021/01/11 06:53:29;;;;;;;6.60;1.30;;;30.40;58.70;;;;;;4992945;28;20234;-74
2021/01/11 06:56:32;;;;;;;5.00;1.00;;;30.40;59.00;;;;;;4992886;28;20256;-72
2021/01/11 06:59:06;;;;;;;4.35;0.95;;;30.40;58.60;;;;;;4993859;28;20523;-71
2021/01/11 07:01:38;;;;;;;3.85;0.73;;;30.20;59.50;;;;;;4994731;28;20526;-71
2021/01/11 07:04:07;;;;;;;2.70;0.75;;;30.50;59.30;;;;;;4994494;28;20209;-72
2021/01/11 07:06:43;;;;;;;3.00;1.02;;;30.30;59.70;;;;;;4994268;28;20228;-71
2021/01/11 07:09:21;;;;;;;5.45;0.95;;;30.60;60.00;;;;;;4994375;28;20591;-71
2021/01/11 07:11:50;;;;;;;3.40;0.77;;;30.20;60.80;;;;;;4993105;28;20190;-71
2021/01/11 07:14:23;;;;;;;3.50;1.00;;;30.00;61.90;;;;;;4994112;28;20251;-72
2021/01/11 07:16:55;;;;;;;4.90;0.70;;;30.40;60.70;;;;;;4993824;28;20588;-72
2021/01/11 07:19:43;;;;;;;4.82;1.00;;;30.30;60.80;;;;;;4994305;28;20185;-71
2021/01/11 07:22:13;;;;;;;3.63;0.82;;;30.00;61.40;;;;;;4994121;28;20228;-71
2021/01/11 07:24:41;;;;;;;8.35;5.70;;;29.60;61.60;;;;;;4994018;28;20170;-72
2021/01/11 07:27:09;;;;;;;6.05;3.83;;;29.30;62.00;;;;;;4993765;28;20188;-71
2021/01/11 07:29:37;;;;;;;5.75;0.82;;;29.50;62.40;;;;;;4993923;28;20197;-72
2021/01/11 07:32:05;;;;;;;3.00;0.90;;;29.10;63.00;;;;;;4994076;28;20182;-72
2021/01/11 07:34:33;;;;;;;2.70;0.70;;;28.60;63.80;;;;;;4988271;28;20214;-71
2021/01/11 07:37:00;;;;;;;3.93;0.77;;;28.00;66.00;;;;;;4984417;28;20182;-72
2021/01/11 07:39:29;;;;;;;3.30;0.80;;;27.40;67.40;;;;;;4979308;28;20668;-71
2021/01/11 07:41:59;;;;;;;2.17;0.67;;;27.10;69.60;;;;;;4991504;28;20248;-72
2021/01/11 07:44:27;;;;;;;6.43;1.17;;;26.90;70.20;;;;;;4985707;28;20539;-73
2021/01/11 07:46:58;;;;;;;5.30;1.20;;;26.70;70.80;;;;;;4986195;28;20174;-71
2021/01/11 07:49:30;;;;;;;3.50;0.90;;;26.70;71.60;;;;;;4990942;28;20190;-71
2021/01/11 07:52:16;;;;;;;4.57;1.03;;;26.50;72.10;;;;;;4989809;28;20306;-71
2021/01/11 07:54:45;;;;;;;5.53;0.87;;;26.30;73.10;;;;;;4977655;28;20209;-72
2021/01/11 07:57:15;;;;;;;7.30;2.20;;;26.10;73.80;;;;;;4993572;28;20178;-71
2021/01/11 07:59:45;;;;;;;5.57;1.00;;;26.10;74.50;;;;;;4992623;28;20174;-71
2021/01/11 08:02:16;;;;;;;2.83;0.93;;;26.10;74.50;;;;;;4991794;28;20186;-71
2021/01/11 08:04:44;;;;;;;4.87;1.00;;;25.90;74.80;;;;;;4984118;28;20186;-71
2021/01/11 08:07:13;;;;;;;5.07;1.00;;;25.70;75.10;;;;;;4989495;28;20739;-73
2021/01/11 08:09:41;;;;;;;4.73;0.70;;;25.70;76.10;;;;;;4991770;28;20173;-70
2021/01/11 08:12:11;;;;;;;3.87;0.80;;;25.60;76.40;;;;;;4991163;28;20174;-72
2021/01/11 08:14:41;;;;;;;6.60;1.10;;;25.50;77.50;;;;;;4991088;28;20201;-72
2021/01/11 08:17:19;;;;;;;2.63;0.97;;;25.60;78.10;;;;;;4989039;28;20570;-71
2021/01/11 08:20:06;;;;;;;4.70;1.00;;;25.40;78.60;;;;;;4993011;28;20530;-73
2021/01/11 08:22:34;;;;;;;5.73;1.13;;;25.40;79.30;;;;;;4992756;28;20178;-72
2021/01/11 08:25:01;;;;;;;5.53;1.23;;;25.30;79.90;;;;;;4984009;28;20715;-72
2021/01/11 08:27:34;;;;;;;9.40;1.23;;;25.30;80.50;;;;;;4993361;28;20674;-72
2021/01/11 08:30:20;;;;;;;5.17;3.23;;;25.10;81.10;;;;;;4990933;28;20577;-69
2021/01/11 08:32:48;;;;;;;3.03;1.10;;;25.10;81.60;;;;;;4983730;28;20189;-71
2021/01/11 08:35:23;;;;;;;2.80;1.03;;;25.00;82.10;;;;;;4989262;28;20225;-71
2021/01/11 08:37:58;;;;;;;3.33;0.73;;;25.00;82.20;;;;;;4974371;28;20182;-69
2021/01/11 08:40:32;;;;;;;3.83;1.10;;;24.90;81.70;;;;;;4980845;28;20177;-71
2021/01/11 08:43:25;;;;;;;5.83;1.13;;;24.70;82.70;;;;;;4984948;28;20258;-71
2021/01/11 08:45:53;;;;;;;4.67;1.10;;;24.70;83.20;;;;;;4982191;28;20177;-71
2021/01/11 08:48:27;;;;;;;4.03;0.77;;;24.60;83.60;;;;;;4995899;28;20216;-69
2021/01/11 08:50:54;;;;;;;7.20;1.10;;;24.50;84.40;;;;;;4987352;28;20178;-72
2021/01/11 08:53:30;;;;;;;2.30;0.80;;;24.50;85.00;;;;;;4993232;28;20246;-70
2021/01/11 08:56:09;;;;;;;2.47;0.70;;;24.40;85.50;;;;;;4982526;28;20271;-71
2021/01/11 08:58:38;;;;;;;7.63;1.30;;;24.30;85.80;;;;;;4995588;28;20277;-72
2021/01/11 09:01:14;;;;;;;4.37;1.07;;;24.30;86.60;;;;;;4993400;28;20186;-71
2021/01/11 09:03:42;;;;;;;5.93;1.60;;;24.20;86.70;;;;;;4993356;28;20178;-71
2021/01/11 09:06:11;;;;;;;4.23;1.10;;;24.30;87.20;;;;;;4995232;28;20185;-71
2021/01/11 09:08:38;;;;;;;5.33;1.10;;;24.20;86.90;;;;;;4987096;28;20198;-72
2021/01/11 09:11:12;;;;;;;7.43;1.10;;;24.20;86.30;;;;;;4979194;28;20653;-71
2021/01/11 09:13:39;;;;;;;3.53;0.80;;;24.10;86.70;;;;;;4989054;28;20670;-71
2021/01/11 09:16:16;;;;;;;3.23;0.83;;;24.10;86.80;;;;;;4982373;28;20842;-71
2021/01/11 09:18:43;;;;;;;4.33;1.03;;;24.10;87.10;;;;;;4995740;28;20258;-70
2021/01/11 09:21:11;;;;;;;3.00;0.70;;;24.00;87.20;;;;;;4982082;28;20547;-70
2021/01/11 09:23:38;;;;;;;4.47;1.53;;;24.00;86.70;;;;;;4991139;28;20184;-71
2021/01/11 09:26:05;;;;;;;8.10;4.67;;;23.90;87.40;;;;;;4996035;28;20182;-70
2021/01/11 09:28:33;;;;;;;4.10;1.53;;;24.00;87.70;;;;;;4995931;28;20220;-70
2021/01/11 09:31:00;;;;;;;2.83;0.83;;;23.90;88.00;;;;;;4994537;28;20174;-72
2021/01/11 09:33:27;;;;;;;2.57;0.80;;;23.90;87.80;;;;;;4990081;28;20178;-72
2021/01/11 09:35:55;;;;;;;2.63;0.90;;;23.90;87.90;;;;;;4995617;28;20222;-72
2021/01/11 09:38:22;;;;;;;5.10;0.87;;;23.90;87.90;;;;;;4995796;28;20186;-71
2021/01/11 09:40:50;;;;;;;5.50;0.93;;;23.80;88.90;;;;;;4987548;28;20224;-71
2021/01/11 09:43:17;;;;;;;2.43;0.80;;;23.80;88.60;;;;;;4985200;28;20190;-71
2021/01/11 09:45:45;;;;;;;5.63;1.10;;;23.80;88.90;;;;;;4994276;28;20201;-70
2021/01/11 09:48:12;;;;;;;3.90;1.13;;;23.80;89.00;;;;;;4995812;28;20243;-69
2021/01/11 09:50:40;;;;;;;3.73;0.97;;;23.80;89.10;;;;;;4995341;28;20272;-71
2021/01/11 09:53:08;;;;;;;9.23;0.90;;;23.70;89.10;;;;;;4993765;28;20197;-71
2021/01/11 09:55:38;;;;;;;6.07;0.80;;;23.70;89.40;;;;;;4982117;28;20237;-71
2021/01/11 09:58:05;;;;;;;4.43;0.83;;;23.70;89.60;;;;;;4995474;28;20177;-71
2021/01/11 10:00:32;;;;;;;5.80;0.83;;;23.60;89.70;;;;;;4982139;28;20190;-71
2021/01/11 10:03:00;;;;;;;4.87;1.20;;;23.60;90.10;;;;;;4987149;28;20185;-70
2021/01/11 10:05:29;;;;;;;1.50;0.67;;;23.60;90.10;;;;;;4992118;28;20193;-71
2021/01/11 10:07:57;;;;;;;6.40;2.87;;;23.60;90.00;;;;;;4991500;28;20566;-71
2021/01/11 10:10:24;;;;;;;5.80;1.10;;;23.50;90.00;;;;;;4995515;28;20662;-70
2021/01/11 10:12:51;;;;;;;7.57;1.37;;;23.50;90.00;;;;;;4994219;28;20205;-71
2021/01/11 10:15:19;;;;;;;5.67;0.93;;;23.50;90.10;;;;;;4979126;28;20221;-73
2021/01/11 10:17:46;;;;;;;9.40;2.00;;;23.50;90.10;;;;;;4995519;28;20190;-71
2021/01/11 10:20:14;;;;;;;6.77;0.87;;;23.50;90.10;;;;;;4992371;28;20189;-71
2021/01/11 10:22:44;;;;;;;5.17;1.10;;;23.50;90.20;;;;;;4997187;28;20232;-70
2021/01/11 10:25:16;;;;;;;4.90;1.23;;;23.50;90.20;;;;;;4990341;28;20608;-71
2021/01/11 10:27:44;;;;;;;4.77;0.93;;;23.50;90.20;;;;;;4988671;28;20185;-71
2021/01/11 10:30:11;;;;;;;4.43;1.50;;;23.50;90.10;;;;;;4988481;28;20240;-72
2021/01/11 10:32:40;;;;;;;8.47;1.07;;;23.50;90.20;;;;;;4986130;28;20182;-71
2021/01/11 10:35:07;;;;;;;6.93;1.30;;;23.40;90.30;;;;;;4989870;28;20218;-71
2021/01/11 10:37:35;;;;;;;6.23;1.33;;;23.40;90.30;;;;;;4986415;28;20179;-71
2021/01/11 10:40:03;;;;;;;6.30;1.50;;;23.40;90.70;;;;;;4986478;28;20186;-71
2021/01/11 10:42:30;;;;;;;5.13;1.30;;;23.40;90.50;;;;;;4986286;28;20273;-71
2021/01/11 10:44:58;;;;;;;6.30;1.37;;;23.40;90.60;;;;;;4986148;28;20193;-71
2021/01/11 10:47:26;;;;;;;4.73;1.07;;;23.40;90.60;;;;;;4985433;28;20185;-71
2021/01/11 10:49:53;;;;;;;3.97;1.07;;;23.40;90.60;;;;;;4980224;28;20187;-71
2021/01/11 10:52:20;;;;;;;3.93;1.33;;;23.30;90.70;;;;;;4982332;28;20266;-71
2021/01/11 10:54:48;;;;;;;6.50;1.60;;;23.30;91.00;;;;;;4976110;28;20198;-71
2021/01/11 10:57:15;;;;;;;6.00;0.93;;;23.30;90.90;;;;;;4989989;28;20195;-70
2021/01/11 10:59:42;;;;;;;6.87;1.30;;;23.30;91.00;;;;;;4986743;28;20173;-70
2021/01/11 11:02:10;;;;;;;8.07;1.37;;;23.30;90.90;;;;;;4993488;28;20192;-71
2021/01/11 11:04:38;;;;;;;6.27;1.10;;;23.20;91.00;;;;;;4986204;28;20213;-71
2021/01/11 11:07:05;;;;;;;5.77;1.30;;;23.20;91.30;;;;;;4985315;28;20672;-71
2021/01/11 11:09:32;;;;;;;7.60;1.13;;;23.20;91.30;;;;;;4991519;28;20221;-71
2021/01/11 11:12:00;;;;;;;9.07;1.27;;;23.20;91.50;;;;;;4983788;28;20231;-70
2021/01/11 11:14:27;;;;;;;6.03;1.37;;;23.20;91.80;;;;;;4981796;28;20688;-73
2021/01/11 11:16:55;;;;;;;6.50;1.20;;;23.20;91.80;;;;;;4986972;28;20194;-70
2021/01/11 11:19:22;;;;;;;4.17;1.27;;;23.10;91.90;;;;;;4985918;28;20191;-70
2021/01/11 11:21:49;;;;;;;10.20;1.50;;;23.10;92.10;;;;;;4987723;28;20185;-71
2021/01/11 11:24:17;;;;;;;6.33;1.40;;;23.10;92.20;;;;;;4978306;28;20186;-70
2021/01/11 11:26:45;;;;;;;5.13;0.97;;;23.10;92.20;;;;;;4982381;28;20197;-70
2021/01/11 11:29:12;;;;;;;8.63;1.47;;;23.10;92.30;;;;;;4985765;28;20320;-71
2021/01/11 11:31:40;;;;;;;7.33;1.40;;;23.10;92.50;;;;;;4980606;28;20190;-71
2021/01/11 11:34:08;;;;;;;7.10;1.30;;;23.10;92.60;;;;;;4981602;28;20193;-72
2021/01/11 11:36:36;;;;;;;8.83;1.63;;;23.10;92.70;;;;;;4984692;28;20250;-71
2021/01/11 11:39:04;;;;;;;9.87;1.43;;;23.10;92.80;;;;;;4989756;28;20201;-71
2021/01/11 11:41:31;;;;;;;7.73;1.20;;;23.10;92.90;;;;;;4981728;28;20190;-71
2021/01/11 11:43:59;;;;;;;9.03;1.53;;;23.00;93.10;;;;;;4989199;28;20575;-72
2021/01/11 11:46:29;;;;;;;5.70;1.33;;;23.00;93.10;;;;;;4983727;28;20194;-71
2021/01/11 11:48:58;;;;;;;14.97;1.30;;;23.00;93.10;;;;;;4988761;28;20639;-72
2021/01/11 11:51:27;;;;;;;10.10;1.80;;;23.00;93.20;;;;;;4987922;28;20186;-72
2021/01/11 11:53:54;;;;;;;9.33;1.80;;;23.00;93.30;;;;;;4980063;28;20274;-71
2021/01/11 11:56:22;;;;;;;6.77;1.53;;;22.90;93.40;;;;;;4983746;28;20284;-71
2021/01/11 11:58:49;;;;;;;9.63;2.03;;;22.90;93.30;;;;;;4977000;28;20186;-71
2021/01/11 12:01:16;;;;;;;9.23;1.43;;;22.90;93.20;;;;;;4985249;28;20190;-71
2021/01/11 12:03:44;;;;;;;11.70;1.57;;;22.90;93.20;;;;;;4977909;28;20191;-71
2021/01/11 12:06:11;;;;;;;9.63;1.60;;;23.00;93.00;;;;;;4988622;28;20218;-72
2021/01/11 12:08:38;;;;;;;13.03;1.47;;;23.10;92.70;;;;;;4985560;28;20186;-71
2021/01/11 12:11:06;;;;;;;6.87;1.63;;;23.10;92.50;;;;;;4992714;28;20197;-72
2021/01/11 12:13:33;;;;;;;6.87;1.60;;;23.20;92.40;;;;;;4985552;28;20249;-72
2021/01/11 12:16:00;;;;;;;2.83;1.17;;;23.20;92.30;;;;;;4992070;28;20304;-72
2021/01/11 12:18:28;;;;;;;6.93;1.33;;;23.20;91.80;;;;;;4991947;28;20533;-71
2021/01/11 12:20:55;;;;;;;5.13;1.50;;;23.20;91.40;;;;;;4989573;28;20647;-72
2021/01/11 12:23:24;;;;;;;7.03;1.20;;;23.30;91.60;;;;;;4993263;28;20643;-72
2021/01/11 12:25:51;;;;;;;9.50;1.43;;;23.20;91.50;;;;;;4993405;28;20276;-72
2021/01/11 12:28:18;;;;;;;6.97;1.50;;;23.20;91.50;;;;;;4992899;28;20530;-71
2021/01/11 12:30:45;;;;;;;12.43;1.80;;;23.20;91.60;;;;;;4993707;28;20648;-71
2021/01/11 12:33:13;;;;;;;9.30;1.67;;;23.20;91.30;;;;;;4994056;28;20181;-71
2021/01/11 12:35:40;;;;;;;8.27;1.33;;;23.20;91.40;;;;;;4986334;28;20576;-73
2021/01/11 12:38:07;;;;;;;9.53;1.60;;;23.20;91.00;;;;;;4990297;28;20220;-72
2021/01/11 12:40:35;;;;;;;7.93;1.43;;;23.20;91.10;;;;;;4993993;28;20236;-72
2021/01/11 12:43:02;;;;;;;8.10;1.80;;;23.20;90.70;;;;;;4992242;28;20252;-71
2021/01/11 12:45:29;;;;;;;7.10;1.30;;;23.20;90.90;;;;;;4996860;28;20186;-72
2021/01/11 12:47:57;;;;;;;15.53;2.00;;;23.20;91.00;;;;;;4990338;28;20269;-72
2021/01/11 12:50:24;;;;;;;9.90;1.30;;;23.20;90.80;;;;;;4988900;28;20190;-72
2021/01/11 12:52:51;;;;;;;7.77;1.87;;;23.20;90.80;;;;;;4990286;28;20190;-72
2021/01/11 12:55:19;;;;;;;10.20;1.40;;;23.20;90.80;;;;;;4993478;28;20245;-72
2021/01/11 12:57:46;;;;;;;8.13;1.20;;;23.20;90.60;;;;;;4994534;28;20544;-71
2021/01/11 13:00:14;;;;;;;9.30;1.50;;;23.20;90.70;;;;;;4985118;28;20183;-71
2021/01/11 13:02:41;;;;;;;8.67;1.50;;;23.10;90.40;;;;;;4980082;28;20633;-73
2021/01/11 13:05:09;;;;;;;8.57;1.30;;;23.20;90.20;;;;;;4986025;28;20230;-72
2021/01/11 13:07:37;;;;;;;8.50;1.63;;;23.20;90.30;;;;;;4993078;28;20213;-71
2021/01/11 13:10:05;;;;;;;9.37;1.67;;;23.20;90.40;;;;;;4995924;28;20197;-73
2021/01/11 13:12:32;;;;;;;5.80;1.50;;;23.20;90.40;;;;;;4994603;28;20686;-73
2021/01/11 13:15:02;;;;;;;8.13;1.43;;;23.10;90.50;;;;;;4978454;28;20235;-72
2021/01/11 13:17:29;;;;;;;8.87;1.53;;;23.00;90.40;;;;;;4982224;28;20186;-72
2021/01/11 13:19:57;;;;;;;7.67;1.10;;;23.00;90.40;;;;;;4983360;28;20183;-72
2021/01/11 13:22:24;;;;;;;5.43;1.50;;;23.00;90.40;;;;;;4991038;28;20226;-72
2021/01/11 13:24:52;;;;;;;3.63;1.07;;;23.00;90.40;;;;;;4993464;28;20190;-71
2021/01/11 13:27:19;;;;;;;6.83;1.37;;;23.00;90.50;;;;;;4996360;28;20178;-72
2021/01/11 13:29:46;;;;;;;6.73;1.30;;;22.90;90.70;;;;;;4992522;28;20190;-73
2021/01/11 13:32:15;;;;;;;4.77;1.50;;;22.90;90.70;;;;;;4980221;28;20193;-72
2021/01/11 13:34:44;;;;;;;6.30;1.50;;;23.00;90.60;;;;;;4985621;28;20217;-72
2021/01/11 13:37:11;;;;;;;7.00;1.60;;;22.90;90.70;;;;;;4993860;28;20693;-71
2021/01/11 13:39:39;;;;;;;5.93;1.30;;;22.90;90.70;;;;;;4994111;28;20214;-72
2021/01/11 13:42:12;;;;;;;8.67;1.70;;;23.00;90.70;;;;;;4992753;28;20240;-71
2021/01/11 13:44:39;;;;;;;6.33;1.37;;;22.90;90.70;;;;;;4994366;28;20644;-71
2021/01/11 13:47:07;;;;;;;8.07;1.30;;;22.90;90.80;;;;;;4995735;28;20247;-72
2021/01/11 13:49:34;;;;;;;8.07;1.33;;;22.80;91.00;;;;;;4994364;28;20185;-72
2021/01/11 13:52:02;;;;;;;5.70;1.10;;;22.80;91.00;;;;;;4995971;28;20273;-70